sensor_id;sensor_type;location;lat;lon;timestamp;P1;durP1;ratioP1;P2;durP2;ratioP2
74849;SDS011;63397;47.480;19.238;2023-06-26T00:00:25;5.55;;;2.63;;
74849;SDS011;63397;47.480;19.238;2023-06-26T00:03:27;5.57;;;2.80;;
74849;SDS011;63397;47.480;19.238;2023-06-26T00:06:31;6.25;;;2.63;;
74849;SDS011;63397;47.480;19.238;2023-06-26T00:09:33;5.68;;;2.70;;
74849;SDS011;63397;47.480;19.238;2023-06-26T00:12:36;7.50;;;3.00;;
74849;SDS011;63397;47.480;19.238;2023-06-26T00:15:38;7.38;;;2.80;;
74849;SDS011;63397;47.480;19.238;2023-06-26T00:18:41;5.50;;;2.60;;
74849;SDS011;63397;47.480;19.238;2023-06-26T00:21:43;7.63;;;2.97;;
74849;SDS011;63397;47.480;19.238;2023-06-26T00:24:50;6.60;;;2.55;;
74849;SDS011;63397;47.480;19.238;2023-06-26T00:27:52;6.03;;;2.67;;
74849;SDS011;63397;47.480;19.238;2023-06-26T00:30:54;5.75;;;2.97;;
74849;SDS011;63397;47.480;19.238;2023-06-26T00:33:56;6.30;;;2.63;;
74849;SDS011;63397;47.480;19.238;2023-06-26T00:36:59;6.38;;;2.72;;
74849;SDS011;63397;47.480;19.238;2023-06-26T00:40:02;6.13;;;2.75;;
74849;SDS011;63397;47.480;19.238;2023-06-26T00:43:07;7.70;;;3.30;;
74849;SDS011;63397;47.480;19.238;2023-06-26T00:46:10;6.35;;;2.70;;
74849;SDS011;63397;47.480;19.238;2023-06-26T00:49:13;6.70;;;2.80;;
74849;SDS011;63397;47.480;19.238;2023-06-26T00:52:15;5.28;;;2.58;;
74849;SDS011;63397;47.480;19.238;2023-06-26T00:55:18;6.72;;;2.65;;
74849;SDS011;63397;47.480;19.238;2023-06-26T00:58:24;6.30;;;2.53;;
74849;SDS011;63397;47.480;19.238;2023-06-26T01:01:27;6.40;;;2.88;;
74849;SDS011;63397;47.480;19.238;2023-06-26T01:04:29;6.68;;;2.85;;
74849;SDS011;63397;47.480;19.238;2023-06-26T01:07:35;6.50;;;3.05;;
74849;SDS011;63397;47.480;19.238;2023-06-26T01:10:38;5.53;;;2.42;;
74849;SDS011;63397;47.480;19.238;2023-06-26T01:13:42;5.33;;;2.60;;
74849;SDS011;63397;47.480;19.238;2023-06-26T01:16:47;6.68;;;2.65;;
74849;SDS011;63397;47.480;19.238;2023-06-26T01:19:51;8.27;;;4.43;;
74849;SDS011;63397;47.480;19.238;2023-06-26T01:29:20;7.13;;;3.57;;
74849;SDS011;63397;47.480;19.238;2023-06-26T01:32:25;7.65;;;3.75;;
74849;SDS011;63397;47.480;19.238;2023-06-26T01:35:28;7.03;;;3.80;;
74849;SDS011;63397;47.480;19.238;2023-06-26T01:38:31;7.20;;;3.63;;
74849;SDS011;63397;47.480;19.238;2023-06-26T01:41:33;7.40;;;3.40;;
74849;SDS011;63397;47.480;19.238;2023-06-26T01:44:37;8.30;;;3.40;;
74849;SDS011;63397;47.480;19.238;2023-06-26T01:47:43;7.68;;;3.17;;
74849;SDS011;63397;47.480;19.238;2023-06-26T01:50:46;6.72;;;3.30;;
74849;SDS011;63397;47.480;19.238;2023-06-26T01:53:50;7.03;;;3.42;;
74849;SDS011;63397;47.480;19.238;2023-06-26T01:56:54;6.00;;;3.33;;
74849;SDS011;63397;47.480;19.238;2023-06-26T01:59:57;6.63;;;3.50;;
74849;SDS011;63397;47.480;19.238;2023-06-26T02:03:01;7.25;;;3.10;;
74849;SDS011;63397;47.480;19.238;2023-06-26T02:06:04;8.05;;;3.88;;
74849;SDS011;63397;47.480;19.238;2023-06-26T02:09:07;6.95;;;3.80;;
74849;SDS011;63397;47.480;19.238;2023-06-26T02:12:11;7.35;;;3.97;;
74849;SDS011;63397;47.480;19.238;2023-06-26T02:15:13;8.00;;;3.80;;
74849;SDS011;63397;47.480;19.238;2023-06-26T02:18:15;7.82;;;3.63;;
74849;SDS011;63397;47.480;19.238;2023-06-26T02:21:17;9.70;;;4.55;;
74849;SDS011;63397;47.480;19.238;2023-06-26T02:24:20;8.27;;;4.63;;
74849;SDS011;63397;47.480;19.238;2023-06-26T02:27:22;8.15;;;4.43;;
74849;SDS011;63397;47.480;19.238;2023-06-26T02:30:24;9.43;;;5.00;;
74849;SDS011;63397;47.480;19.238;2023-06-26T02:33:27;8.88;;;4.43;;
74849;SDS011;63397;47.480;19.238;2023-06-26T02:36:29;7.90;;;4.32;;
74849;SDS011;63397;47.480;19.238;2023-06-26T02:39:31;8.57;;;4.43;;
74849;SDS011;63397;47.480;19.238;2023-06-26T02:42:34;9.55;;;4.85;;
74849;SDS011;63397;47.480;19.238;2023-06-26T02:45:38;8.67;;;4.90;;
74849;SDS011;63397;47.480;19.238;2023-06-26T02:48:40;9.45;;;4.82;;
74849;SDS011;63397;47.480;19.238;2023-06-26T02:51:42;11.82;;;4.53;;
74849;SDS011;63397;47.480;19.238;2023-06-26T02:54:54;9.27;;;4.35;;
74849;SDS011;63397;47.480;19.238;2023-06-26T02:57:57;11.32;;;5.30;;
74849;SDS011;63397;47.480;19.238;2023-06-26T03:00:59;9.30;;;4.37;;
74849;SDS011;63397;47.480;19.238;2023-06-26T03:04:02;10.13;;;4.78;;
74849;SDS011;63397;47.480;19.238;2023-06-26T03:07:04;9.27;;;4.65;;
74849;SDS011;63397;47.480;19.238;2023-06-26T03:10:07;9.35;;;5.00;;
74849;SDS011;63397;47.480;19.238;2023-06-26T03:13:09;9.95;;;4.80;;
74849;SDS011;63397;47.480;19.238;2023-06-26T03:16:11;10.57;;;4.67;;
74849;SDS011;63397;47.480;19.238;2023-06-26T03:19:14;11.52;;;5.43;;
74849;SDS011;63397;47.480;19.238;2023-06-26T03:22:42;8.82;;;5.10;;
74849;SDS011;63397;47.480;19.238;2023-06-26T03:25:45;9.50;;;5.38;;
74849;SDS011;63397;47.480;19.238;2023-06-26T03:29:02;8.70;;;5.45;;
74849;SDS011;63397;47.480;19.238;2023-06-26T03:32:05;9.67;;;5.27;;
74849;SDS011;63397;47.480;19.238;2023-06-26T03:35:09;11.23;;;5.75;;
74849;SDS011;63397;47.480;19.238;2023-06-26T03:38:11;10.30;;;5.72;;
74849;SDS011;63397;47.480;19.238;2023-06-26T03:41:15;8.77;;;5.05;;
74849;SDS011;63397;47.480;19.238;2023-06-26T03:44:17;11.52;;;5.57;;
74849;SDS011;63397;47.480;19.238;2023-06-26T03:47:22;9.90;;;5.37;;
74849;SDS011;63397;47.480;19.238;2023-06-26T03:50:24;12.40;;;5.75;;
74849;SDS011;63397;47.480;19.238;2023-06-26T03:53:27;10.00;;;5.65;;
74849;SDS011;63397;47.480;19.238;2023-06-26T03:56:29;9.90;;;5.82;;
74849;SDS011;63397;47.480;19.238;2023-06-26T03:59:32;9.88;;;5.43;;
74849;SDS011;63397;47.480;19.238;2023-06-26T04:02:34;10.33;;;5.60;;
74849;SDS011;63397;47.480;19.238;2023-06-26T04:05:37;8.80;;;5.45;;
74849;SDS011;63397;47.480;19.238;2023-06-26T04:08:40;10.25;;;5.97;;
74849;SDS011;63397;47.480;19.238;2023-06-26T04:11:42;9.55;;;5.50;;
74849;SDS011;63397;47.480;19.238;2023-06-26T04:14:44;10.43;;;5.68;;
74849;SDS011;63397;47.480;19.238;2023-06-26T04:17:47;9.63;;;5.30;;
74849;SDS011;63397;47.480;19.238;2023-06-26T04:21:12;9.93;;;5.50;;
74849;SDS011;63397;47.480;19.238;2023-06-26T04:24:15;10.02;;;5.35;;
74849;SDS011;63397;47.480;19.238;2023-06-26T04:27:17;9.48;;;5.72;;
74849;SDS011;63397;47.480;19.238;2023-06-26T04:30:20;10.15;;;6.22;;
74849;SDS011;63397;47.480;19.238;2023-06-26T04:33:22;9.90;;;5.60;;
74849;SDS011;63397;47.480;19.238;2023-06-26T04:36:25;9.38;;;5.38;;
74849;SDS011;63397;47.480;19.238;2023-06-26T04:39:30;8.98;;;5.60;;
74849;SDS011;63397;47.480;19.238;2023-06-26T04:42:33;9.50;;;5.75;;
74849;SDS011;63397;47.480;19.238;2023-06-26T04:45:35;9.38;;;5.35;;
74849;SDS011;63397;47.480;19.238;2023-06-26T04:48:38;9.40;;;5.30;;
74849;SDS011;63397;47.480;19.238;2023-06-26T04:51:40;12.20;;;5.45;;
74849;SDS011;63397;47.480;19.238;2023-06-26T04:54:42;9.48;;;5.50;;
74849;SDS011;63397;47.480;19.238;2023-06-26T04:57:44;8.85;;;5.28;;
74849;SDS011;63397;47.480;19.238;2023-06-26T05:00:47;9.07;;;5.22;;
74849;SDS011;63397;47.480;19.238;2023-06-26T05:03:49;9.00;;;5.70;;
74849;SDS011;63397;47.480;19.238;2023-06-26T05:06:52;8.45;;;5.28;;
74849;SDS011;63397;47.480;19.238;2023-06-26T05:09:54;9.45;;;4.95;;
74849;SDS011;63397;47.480;19.238;2023-06-26T05:12:57;7.15;;;4.72;;
74849;SDS011;63397;47.480;19.238;2023-06-26T05:15:59;9.05;;;5.20;;
74849;SDS011;63397;47.480;19.238;2023-06-26T05:19:02;9.53;;;4.70;;
74849;SDS011;63397;47.480;19.238;2023-06-26T05:22:04;7.32;;;4.45;;
74849;SDS011;63397;47.480;19.238;2023-06-26T05:25:09;9.40;;;5.28;;
74849;SDS011;63397;47.480;19.238;2023-06-26T05:28:12;11.23;;;4.88;;
74849;SDS011;63397;47.480;19.238;2023-06-26T05:31:17;8.75;;;4.90;;
74849;SDS011;63397;47.480;19.238;2023-06-26T05:34:20;7.50;;;4.50;;
74849;SDS011;63397;47.480;19.238;2023-06-26T05:37:24;9.70;;;4.47;;
74849;SDS011;63397;47.480;19.238;2023-06-26T05:40:27;7.55;;;4.80;;
74849;SDS011;63397;47.480;19.238;2023-06-26T05:43:29;9.35;;;4.95;;
74849;SDS011;63397;47.480;19.238;2023-06-26T05:46:31;9.27;;;4.70;;
74849;SDS011;63397;47.480;19.238;2023-06-26T05:49:34;7.17;;;4.53;;
74849;SDS011;63397;47.480;19.238;2023-06-26T05:52:36;7.68;;;4.28;;
74849;SDS011;63397;47.480;19.238;2023-06-26T05:55:40;8.40;;;4.57;;
74849;SDS011;63397;47.480;19.238;2023-06-26T05:58:45;8.23;;;5.07;;
74849;SDS011;63397;47.480;19.238;2023-06-26T06:01:47;7.97;;;5.13;;
74849;SDS011;63397;47.480;19.238;2023-06-26T06:04:51;9.03;;;4.73;;
74849;SDS011;63397;47.480;19.238;2023-06-26T06:07:54;6.47;;;4.20;;
74849;SDS011;63397;47.480;19.238;2023-06-26T06:10:56;9.52;;;4.82;;
74849;SDS011;63397;47.480;19.238;2023-06-26T06:14:01;8.77;;;4.90;;
74849;SDS011;63397;47.480;19.238;2023-06-26T06:17:04;8.57;;;4.75;;
74849;SDS011;63397;47.480;19.238;2023-06-26T06:20:06;9.47;;;4.97;;
74849;SDS011;63397;47.480;19.238;2023-06-26T06:23:08;8.30;;;4.72;;
74849;SDS011;63397;47.480;19.238;2023-06-26T06:26:11;6.72;;;4.32;;
74849;SDS011;63397;47.480;19.238;2023-06-26T06:29:13;7.95;;;4.57;;
74849;SDS011;63397;47.480;19.238;2023-06-26T06:32:15;7.85;;;4.90;;
74849;SDS011;63397;47.480;19.238;2023-06-26T06:35:18;7.97;;;5.03;;
74849;SDS011;63397;47.480;19.238;2023-06-26T06:38:20;7.32;;;4.65;;
74849;SDS011;63397;47.480;19.238;2023-06-26T06:41:23;7.30;;;4.90;;
74849;SDS011;63397;47.480;19.238;2023-06-26T06:44:25;8.93;;;4.97;;
74849;SDS011;63397;47.480;19.238;2023-06-26T06:47:27;7.25;;;4.80;;
74849;SDS011;63397;47.480;19.238;2023-06-26T06:50:30;9.07;;;5.30;;
74849;SDS011;63397;47.480;19.238;2023-06-26T06:53:32;7.45;;;4.95;;
74849;SDS011;63397;47.480;19.238;2023-06-26T06:56:35;8.30;;;4.80;;
74849;SDS011;63397;47.480;19.238;2023-06-26T06:59:37;7.53;;;5.30;;
74849;SDS011;63397;47.480;19.238;2023-06-26T07:02:40;7.20;;;4.72;;
74849;SDS011;63397;47.480;19.238;2023-06-26T07:05:42;7.93;;;4.70;;
74849;SDS011;63397;47.480;19.238;2023-06-26T07:08:45;7.18;;;4.70;;
74849;SDS011;63397;47.480;19.238;2023-06-26T07:11:47;8.63;;;5.28;;
74849;SDS011;63397;47.480;19.238;2023-06-26T07:14:49;8.20;;;4.68;;
74849;SDS011;63397;47.480;19.238;2023-06-26T07:17:52;7.82;;;5.13;;
74849;SDS011;63397;47.480;19.238;2023-06-26T07:20:54;9.63;;;5.23;;
74849;SDS011;63397;47.480;19.238;2023-06-26T07:23:56;7.20;;;4.80;;
74849;SDS011;63397;47.480;19.238;2023-06-26T07:26:59;8.20;;;4.93;;
74849;SDS011;63397;47.480;19.238;2023-06-26T07:30:02;7.00;;;4.78;;
74849;SDS011;63397;47.480;19.238;2023-06-26T07:33:06;8.18;;;4.88;;
74849;SDS011;63397;47.480;19.238;2023-06-26T07:36:08;8.30;;;5.13;;
74849;SDS011;63397;47.480;19.238;2023-06-26T07:39:10;6.40;;;4.70;;
74849;SDS011;63397;47.480;19.238;2023-06-26T07:42:19;9.35;;;4.85;;
74849;SDS011;63397;47.480;19.238;2023-06-26T07:45:21;7.10;;;4.55;;
74849;SDS011;63397;47.480;19.238;2023-06-26T07:48:27;8.23;;;4.97;;
74849;SDS011;63397;47.480;19.238;2023-06-26T07:51:29;7.33;;;4.67;;
74849;SDS011;63397;47.480;19.238;2023-06-26T07:54:31;8.07;;;5.07;;
74849;SDS011;63397;47.480;19.238;2023-06-26T07:57:33;6.45;;;4.28;;
74849;SDS011;63397;47.480;19.238;2023-06-26T08:00:36;7.07;;;4.68;;
74849;SDS011;63397;47.480;19.238;2023-06-26T08:03:39;7.50;;;4.57;;
74849;SDS011;63397;47.480;19.238;2023-06-26T08:06:42;6.60;;;4.47;;
74849;SDS011;63397;47.480;19.238;2023-06-26T08:09:45;8.00;;;4.72;;
74849;SDS011;63397;47.480;19.238;2023-06-26T08:12:47;8.50;;;4.88;;
74849;SDS011;63397;47.480;19.238;2023-06-26T08:15:52;8.63;;;4.57;;
74849;SDS011;63397;47.480;19.238;2023-06-26T08:18:54;8.15;;;4.60;;
74849;SDS011;63397;47.480;19.238;2023-06-26T08:21:57;7.03;;;4.80;;
74849;SDS011;63397;47.480;19.238;2023-06-26T08:24:59;11.60;;;5.05;;
74849;SDS011;63397;47.480;19.238;2023-06-26T08:28:01;7.68;;;4.72;;
74849;SDS011;63397;47.480;19.238;2023-06-26T08:31:04;8.40;;;4.95;;
74849;SDS011;63397;47.480;19.238;2023-06-26T08:34:06;8.07;;;4.63;;
74849;SDS011;63397;47.480;19.238;2023-06-26T08:37:09;6.70;;;4.67;;
74849;SDS011;63397;47.480;19.238;2023-06-26T08:40:12;8.18;;;4.85;;
74849;SDS011;63397;47.480;19.238;2023-06-26T08:43:15;8.18;;;4.72;;
74849;SDS011;63397;47.480;19.238;2023-06-26T08:46:18;9.93;;;4.70;;
74849;SDS011;63397;47.480;19.238;2023-06-26T08:49:25;8.85;;;4.80;;
74849;SDS011;63397;47.480;19.238;2023-06-26T08:52:33;7.73;;;5.07;;
74849;SDS011;63397;47.480;19.238;2023-06-26T08:55:38;9.25;;;4.82;;
74849;SDS011;63397;47.480;19.238;2023-06-26T08:58:43;8.45;;;5.30;;
74849;SDS011;63397;47.480;19.238;2023-06-26T09:01:46;8.45;;;4.53;;
74849;SDS011;63397;47.480;19.238;2023-06-26T09:04:49;7.55;;;4.63;;
74849;SDS011;63397;47.480;19.238;2023-06-26T09:07:51;7.13;;;4.53;;
74849;SDS011;63397;47.480;19.238;2023-06-26T09:11:00;9.60;;;4.97;;
74849;SDS011;63397;47.480;19.238;2023-06-26T09:14:02;10.18;;;5.07;;
74849;SDS011;63397;47.480;19.238;2023-06-26T09:17:07;8.25;;;4.75;;
74849;SDS011;63397;47.480;19.238;2023-06-26T09:20:10;7.63;;;4.45;;
74849;SDS011;63397;47.480;19.238;2023-06-26T09:23:13;7.77;;;4.60;;
74849;SDS011;63397;47.480;19.238;2023-06-26T09:26:16;8.57;;;4.57;;
74849;SDS011;63397;47.480;19.238;2023-06-26T09:29:19;8.10;;;4.88;;
74849;SDS011;63397;47.480;19.238;2023-06-26T09:32:23;8.45;;;5.32;;
74849;SDS011;63397;47.480;19.238;2023-06-26T09:35:27;7.60;;;4.70;;
74849;SDS011;63397;47.480;19.238;2023-06-26T09:38:29;7.93;;;4.93;;
74849;SDS011;63397;47.480;19.238;2023-06-26T09:41:32;8.88;;;5.40;;
74849;SDS011;63397;47.480;19.238;2023-06-26T09:44:34;7.38;;;5.00;;
74849;SDS011;63397;47.480;19.238;2023-06-26T09:47:37;9.43;;;5.13;;
74849;SDS011;63397;47.480;19.238;2023-06-26T09:50:41;7.78;;;4.90;;
74849;SDS011;63397;47.480;19.238;2023-06-26T09:54:02;7.63;;;4.70;;
74849;SDS011;63397;47.480;19.238;2023-06-26T09:57:08;7.57;;;4.97;;
74849;SDS011;63397;47.480;19.238;2023-06-26T10:00:11;8.13;;;5.43;;
74849;SDS011;63397;47.480;19.238;2023-06-26T10:03:14;9.52;;;5.35;;
74849;SDS011;63397;47.480;19.238;2023-06-26T10:06:22;7.80;;;4.85;;
74849;SDS011;63397;47.480;19.238;2023-06-26T10:09:26;9.07;;;4.50;;
74849;SDS011;63397;47.480;19.238;2023-06-26T10:12:31;8.10;;;5.05;;
74849;SDS011;63397;47.480;19.238;2023-06-26T10:15:33;7.43;;;5.20;;
74849;SDS011;63397;47.480;19.238;2023-06-26T10:18:38;8.43;;;5.20;;
74849;SDS011;63397;47.480;19.238;2023-06-26T10:21:40;8.88;;;5.40;;
74849;SDS011;63397;47.480;19.238;2023-06-26T10:24:43;8.33;;;5.40;;
74849;SDS011;63397;47.480;19.238;2023-06-26T10:27:49;7.70;;;5.07;;
74849;SDS011;63397;47.480;19.238;2023-06-26T10:30:52;8.77;;;5.57;;
74849;SDS011;63397;47.480;19.238;2023-06-26T10:33:55;8.15;;;4.88;;
74849;SDS011;63397;47.480;19.238;2023-06-26T10:37:02;7.25;;;4.70;;
74849;SDS011;63397;47.480;19.238;2023-06-26T10:40:05;7.37;;;4.70;;
74849;SDS011;63397;47.480;19.238;2023-06-26T10:43:08;8.85;;;5.13;;
74849;SDS011;63397;47.480;19.238;2023-06-26T10:46:11;7.95;;;4.80;;
74849;SDS011;63397;47.480;19.238;2023-06-26T10:49:13;7.07;;;4.85;;
74849;SDS011;63397;47.480;19.238;2023-06-26T10:52:16;8.18;;;5.13;;
74849;SDS011;63397;47.480;19.238;2023-06-26T10:55:20;7.20;;;4.63;;
74849;SDS011;63397;47.480;19.238;2023-06-26T11:01:45;8.25;;;5.10;;
74849;SDS011;63397;47.480;19.238;2023-06-26T11:04:52;7.90;;;5.30;;
74849;SDS011;63397;47.480;19.238;2023-06-26T11:08:08;7.85;;;5.28;;
74849;SDS011;63397;47.480;19.238;2023-06-26T11:11:10;6.53;;;4.80;;
74849;SDS011;63397;47.480;19.238;2023-06-26T11:14:12;7.22;;;5.07;;
74849;SDS011;63397;47.480;19.238;2023-06-26T11:17:15;8.23;;;5.00;;
74849;SDS011;63397;47.480;19.238;2023-06-26T11:20:20;10.25;;;4.85;;
74849;SDS011;63397;47.480;19.238;2023-06-26T11:23:23;8.95;;;5.60;;
74849;SDS011;63397;47.480;19.238;2023-06-26T11:26:26;6.30;;;4.33;;
74849;SDS011;63397;47.480;19.238;2023-06-26T11:29:29;9.35;;;4.85;;
74849;SDS011;63397;47.480;19.238;2023-06-26T11:32:31;8.82;;;5.10;;
74849;SDS011;63397;47.480;19.238;2023-06-26T11:35:37;8.40;;;5.47;;
74849;SDS011;63397;47.480;19.238;2023-06-26T11:38:40;9.75;;;4.85;;
74849;SDS011;63397;47.480;19.238;2023-06-26T11:41:44;7.80;;;5.00;;
74849;SDS011;63397;47.480;19.238;2023-06-26T11:44:47;8.05;;;4.85;;
74849;SDS011;63397;47.480;19.238;2023-06-26T11:47:49;7.78;;;4.60;;
74849;SDS011;63397;47.480;19.238;2023-06-26T11:50:51;7.53;;;4.82;;
74849;SDS011;63397;47.480;19.238;2023-06-26T11:53:54;8.40;;;5.13;;
74849;SDS011;63397;47.480;19.238;2023-06-26T11:56:57;8.80;;;5.13;;
74849;SDS011;63397;47.480;19.238;2023-06-26T12:00:10;9.18;;;5.32;;
74849;SDS011;63397;47.480;19.238;2023-06-26T12:03:12;8.60;;;5.38;;
74849;SDS011;63397;47.480;19.238;2023-06-26T12:06:15;9.73;;;4.97;;
74849;SDS011;63397;47.480;19.238;2023-06-26T12:09:18;7.15;;;4.72;;
74849;SDS011;63397;47.480;19.238;2023-06-26T12:12:20;7.60;;;5.23;;
74849;SDS011;63397;47.480;19.238;2023-06-26T12:15:23;8.45;;;5.15;;
74849;SDS011;63397;47.480;19.238;2023-06-26T12:18:26;8.20;;;5.40;;
74849;SDS011;63397;47.480;19.238;2023-06-26T12:24:40;7.22;;;4.80;;
74849;SDS011;63397;47.480;19.238;2023-06-26T12:27:44;7.80;;;5.10;;
74849;SDS011;63397;47.480;19.238;2023-06-26T12:30:47;6.60;;;4.65;;
74849;SDS011;63397;47.480;19.238;2023-06-26T12:33:50;8.45;;;5.13;;
74849;SDS011;63397;47.480;19.238;2023-06-26T12:36:59;10.05;;;5.15;;
74849;SDS011;63397;47.480;19.238;2023-06-26T12:40:01;7.97;;;4.82;;
74849;SDS011;63397;47.480;19.238;2023-06-26T12:43:10;6.90;;;4.80;;
74849;SDS011;63397;47.480;19.238;2023-06-26T12:46:13;6.88;;;4.57;;
74849;SDS011;63397;47.480;19.238;2023-06-26T12:49:16;8.52;;;5.10;;
74849;SDS011;63397;47.480;19.238;2023-06-26T12:52:32;7.90;;;4.75;;
74849;SDS011;63397;47.480;19.238;2023-06-26T12:55:35;7.40;;;4.68;;
74849;SDS011;63397;47.480;19.238;2023-06-26T12:58:38;7.17;;;4.57;;
74849;SDS011;63397;47.480;19.238;2023-06-26T13:01:40;7.25;;;4.85;;
74849;SDS011;63397;47.480;19.238;2023-06-26T13:04:42;9.05;;;5.15;;
74849;SDS011;63397;47.480;19.238;2023-06-26T13:07:46;7.32;;;4.55;;
74849;SDS011;63397;47.480;19.238;2023-06-26T13:10:48;7.38;;;4.95;;
74849;SDS011;63397;47.480;19.238;2023-06-26T13:13:51;7.43;;;4.63;;
74849;SDS011;63397;47.480;19.238;2023-06-26T13:17:11;8.50;;;4.70;;
74849;SDS011;63397;47.480;19.238;2023-06-26T13:20:13;8.07;;;5.00;;
74849;SDS011;63397;47.480;19.238;2023-06-26T13:23:15;8.23;;;5.00;;
74849;SDS011;63397;47.480;19.238;2023-06-26T13:26:19;8.18;;;5.03;;
74849;SDS011;63397;47.480;19.238;2023-06-26T13:29:37;7.67;;;5.17;;
74849;SDS011;63397;47.480;19.238;2023-06-26T13:32:40;8.25;;;4.93;;
74849;SDS011;63397;47.480;19.238;2023-06-26T13:35:42;7.47;;;5.05;;
74849;SDS011;63397;47.480;19.238;2023-06-26T13:38:44;7.78;;;5.10;;
74849;SDS011;63397;47.480;19.238;2023-06-26T13:41:47;7.03;;;4.93;;
74849;SDS011;63397;47.480;19.238;2023-06-26T13:44:49;9.77;;;4.63;;
74849;SDS011;63397;47.480;19.238;2023-06-26T13:48:05;7.05;;;4.90;;
74849;SDS011;63397;47.480;19.238;2023-06-26T13:51:08;8.30;;;4.80;;
74849;SDS011;63397;47.480;19.238;2023-06-26T13:54:10;7.22;;;5.00;;
74849;SDS011;63397;47.480;19.238;2023-06-26T13:57:12;7.18;;;5.00;;
74849;SDS011;63397;47.480;19.238;2023-06-26T14:00:15;6.80;;;4.50;;
74849;SDS011;63397;47.480;19.238;2023-06-26T14:03:21;7.90;;;4.90;;
74849;SDS011;63397;47.480;19.238;2023-06-26T14:06:24;7.13;;;4.78;;
74849;SDS011;63397;47.480;19.238;2023-06-26T14:09:27;7.97;;;4.80;;
74849;SDS011;63397;47.480;19.238;2023-06-26T14:12:29;8.18;;;4.93;;
74849;SDS011;63397;47.480;19.238;2023-06-26T14:15:32;7.93;;;4.60;;
74849;SDS011;63397;47.480;19.238;2023-06-26T14:18:34;9.52;;;4.88;;
74849;SDS011;63397;47.480;19.238;2023-06-26T14:21:37;7.47;;;4.63;;
74849;SDS011;63397;47.480;19.238;2023-06-26T14:24:39;9.02;;;4.80;;
74849;SDS011;63397;47.480;19.238;2023-06-26T14:27:42;7.90;;;4.57;;
74849;SDS011;63397;47.480;19.238;2023-06-26T14:30:44;7.07;;;4.43;;
74849;SDS011;63397;47.480;19.238;2023-06-26T14:33:46;7.78;;;4.70;;
74849;SDS011;63397;47.480;19.238;2023-06-26T14:36:49;7.88;;;4.75;;
74849;SDS011;63397;47.480;19.238;2023-06-26T14:39:51;8.88;;;4.78;;
74849;SDS011;63397;47.480;19.238;2023-06-26T14:42:54;7.38;;;5.03;;
74849;SDS011;63397;47.480;19.238;2023-06-26T14:45:57;7.90;;;4.83;;
74849;SDS011;63397;47.480;19.238;2023-06-26T14:48:59;7.18;;;4.97;;
74849;SDS011;63397;47.480;19.238;2023-06-26T14:52:02;7.07;;;4.95;;
74849;SDS011;63397;47.480;19.238;2023-06-26T14:55:04;7.82;;;4.75;;
74849;SDS011;63397;47.480;19.238;2023-06-26T14:58:09;8.52;;;5.32;;
74849;SDS011;63397;47.480;19.238;2023-06-26T15:01:11;7.03;;;4.80;;
74849;SDS011;63397;47.480;19.238;2023-06-26T15:04:13;9.18;;;4.90;;
74849;SDS011;63397;47.480;19.238;2023-06-26T15:07:16;8.32;;;4.97;;
74849;SDS011;63397;47.480;19.238;2023-06-26T15:10:18;7.95;;;5.13;;
74849;SDS011;63397;47.480;19.238;2023-06-26T15:13:20;7.88;;;4.90;;
74849;SDS011;63397;47.480;19.238;2023-06-26T15:16:23;7.67;;;4.63;;
74849;SDS011;63397;47.480;19.238;2023-06-26T15:19:25;8.10;;;4.55;;
74849;SDS011;63397;47.480;19.238;2023-06-26T15:22:28;7.72;;;4.80;;
74849;SDS011;63397;47.480;19.238;2023-06-26T15:25:30;7.00;;;4.55;;
74849;SDS011;63397;47.480;19.238;2023-06-26T15:28:33;8.93;;;4.68;;
74849;SDS011;63397;47.480;19.238;2023-06-26T15:31:36;8.17;;;4.70;;
74849;SDS011;63397;47.480;19.238;2023-06-26T15:34:39;7.35;;;4.40;;
74849;SDS011;63397;47.480;19.238;2023-06-26T15:37:41;8.50;;;5.03;;
74849;SDS011;63397;47.480;19.238;2023-06-26T15:40:43;8.32;;;4.75;;
74849;SDS011;63397;47.480;19.238;2023-06-26T15:43:46;7.88;;;4.63;;
74849;SDS011;63397;47.480;19.238;2023-06-26T15:46:48;6.80;;;4.60;;
74849;SDS011;63397;47.480;19.238;2023-06-26T15:49:50;8.80;;;4.82;;
74849;SDS011;63397;47.480;19.238;2023-06-26T15:52:53;8.35;;;5.30;;
74849;SDS011;63397;47.480;19.238;2023-06-26T15:55:55;7.47;;;4.85;;
74849;SDS011;63397;47.480;19.238;2023-06-26T15:58:57;7.40;;;4.88;;
74849;SDS011;63397;47.480;19.238;2023-06-26T16:02:00;6.83;;;4.57;;
74849;SDS011;63397;47.480;19.238;2023-06-26T16:05:03;7.47;;;4.63;;
74849;SDS011;63397;47.480;19.238;2023-06-26T16:08:05;6.68;;;5.00;;
74849;SDS011;63397;47.480;19.238;2023-06-26T16:11:08;8.10;;;4.70;;
74849;SDS011;63397;47.480;19.238;2023-06-26T16:14:10;8.13;;;4.90;;
74849;SDS011;63397;47.480;19.238;2023-06-26T16:17:12;8.97;;;4.80;;
74849;SDS011;63397;47.480;19.238;2023-06-26T16:20:15;8.48;;;5.00;;
74849;SDS011;63397;47.480;19.238;2023-06-26T16:23:17;8.52;;;5.15;;
74849;SDS011;63397;47.480;19.238;2023-06-26T16:26:24;7.63;;;5.32;;
74849;SDS011;63397;47.480;19.238;2023-06-26T16:29:26;8.38;;;4.78;;
74849;SDS011;63397;47.480;19.238;2023-06-26T16:32:28;7.33;;;4.63;;
74849;SDS011;63397;47.480;19.238;2023-06-26T16:35:31;6.82;;;4.90;;
74849;SDS011;63397;47.480;19.238;2023-06-26T16:38:36;8.13;;;4.80;;
74849;SDS011;63397;47.480;19.238;2023-06-26T16:41:40;10.77;;;5.88;;
74849;SDS011;63397;47.480;19.238;2023-06-26T16:44:42;8.85;;;5.97;;
74849;SDS011;63397;47.480;19.238;2023-06-26T16:47:44;8.70;;;4.97;;
74849;SDS011;63397;47.480;19.238;2023-06-26T16:50:47;9.27;;;5.40;;
74849;SDS011;63397;47.480;19.238;2023-06-26T16:53:49;7.80;;;5.60;;
74849;SDS011;63397;47.480;19.238;2023-06-26T16:56:52;8.07;;;5.95;;
74849;SDS011;63397;47.480;19.238;2023-06-26T16:59:54;8.35;;;5.50;;
74849;SDS011;63397;47.480;19.238;2023-06-26T17:02:57;7.30;;;5.10;;
74849;SDS011;63397;47.480;19.238;2023-06-26T17:06:00;8.70;;;5.72;;
74849;SDS011;63397;47.480;19.238;2023-06-26T17:09:02;8.57;;;5.90;;
74849;SDS011;63397;47.480;19.238;2023-06-26T17:12:05;7.70;;;5.72;;
74849;SDS011;63397;47.480;19.238;2023-06-26T17:15:07;8.40;;;5.28;;
74849;SDS011;63397;47.480;19.238;2023-06-26T17:18:12;7.53;;;5.13;;
74849;SDS011;63397;47.480;19.238;2023-06-26T17:21:14;7.10;;;4.82;;
74849;SDS011;63397;47.480;19.238;2023-06-26T17:24:17;10.40;;;5.47;;
74849;SDS011;63397;47.480;19.238;2023-06-26T17:27:19;8.57;;;4.57;;
74849;SDS011;63397;47.480;19.238;2023-06-26T17:30:26;7.10;;;5.20;;
74849;SDS011;63397;47.480;19.238;2023-06-26T17:33:29;7.87;;;5.00;;
74849;SDS011;63397;47.480;19.238;2023-06-26T17:36:31;7.97;;;5.10;;
74849;SDS011;63397;47.480;19.238;2023-06-26T17:39:33;8.10;;;5.07;;
74849;SDS011;63397;47.480;19.238;2023-06-26T17:42:35;8.68;;;5.40;;
74849;SDS011;63397;47.480;19.238;2023-06-26T17:45:44;8.32;;;5.38;;
74849;SDS011;63397;47.480;19.238;2023-06-26T17:48:46;7.53;;;4.90;;
74849;SDS011;63397;47.480;19.238;2023-06-26T17:51:48;9.68;;;4.78;;
74849;SDS011;63397;47.480;19.238;2023-06-26T17:54:51;7.50;;;4.88;;
74849;SDS011;63397;47.480;19.238;2023-06-26T17:57:53;7.30;;;4.90;;
74849;SDS011;63397;47.480;19.238;2023-06-26T18:00:56;8.65;;;4.78;;
74849;SDS011;63397;47.480;19.238;2023-06-26T18:03:58;7.73;;;4.80;;
74849;SDS011;63397;47.480;19.238;2023-06-26T18:07:00;8.27;;;4.97;;
74849;SDS011;63397;47.480;19.238;2023-06-26T18:10:03;8.63;;;4.75;;
74849;SDS011;63397;47.480;19.238;2023-06-26T18:13:05;8.80;;;5.00;;
74849;SDS011;63397;47.480;19.238;2023-06-26T18:16:08;8.10;;;5.25;;
74849;SDS011;63397;47.480;19.238;2023-06-26T18:19:11;7.73;;;5.07;;